sensor_id;sensor_type;location;lat;lon;timestamp;temperature;humidity
6822;DHT22;3449;48.728;8.968;2023-08-17T00:00:51;18.70;99.90
6822;DHT22;3449;48.728;8.968;2023-08-17T00:03:17;18.70;99.90
6822;DHT22;3449;48.728;8.968;2023-08-17T00:05:44;18.70;99.90
6822;DHT22;3449;48.728;8.968;2023-08-17T00:08:11;18.70;99.90
6822;DHT22;3449;48.728;8.968;2023-08-17T00:10:38;18.70;99.90
6822;DHT22;3449;48.728;8.968;2023-08-17T00:13:05;18.70;99.90
6822;DHT22;3449;48.728;8.968;2023-08-17T00:15:33;18.70;99.90
6822;DHT22;3449;48.728;8.968;2023-08-17T00:18:00;18.80;99.90
6822;DHT22;3449;48.728;8.968;2023-08-17T00:20:27;18.70;99.90
6822;DHT22;3449;48.728;8.968;2023-08-17T00:22:54;18.70;99.90
6822;DHT22;3449;48.728;8.968;2023-08-17T00:25:21;18.70;99.90
6822;DHT22;3449;48.728;8.968;2023-08-17T00:27:47;18.70;99.90
6822;DHT22;3449;48.728;8.968;2023-08-17T00:30:14;18.70;99.90
6822;DHT22;3449;48.728;8.968;2023-08-17T00:32:42;18.70;99.90
6822;DHT22;3449;48.728;8.968;2023-08-17T00:35:09;18.60;99.90
6822;DHT22;3449;48.728;8.968;2023-08-17T00:37:36;18.60;99.90
6822;DHT22;3449;48.728;8.968;2023-08-17T00:40:03;18.60;99.90
6822;DHT22;3449;48.728;8.968;2023-08-17T00:42:31;18.60;99.90
6822;DHT22;3449;48.728;8.968;2023-08-17T00:44:58;18.60;99.90
6822;DHT22;3449;48.728;8.968;2023-08-17T00:47:25;18.50;99.90
6822;DHT22;3449;48.728;8.968;2023-08-17T00:49:53;18.50;99.90
6822;DHT22;3449;48.728;8.968;2023-08-17T00:52:20;18.50;99.90
6822;DHT22;3449;48.728;8.968;2023-08-17T00:54:47;18.50;99.90
6822;DHT22;3449;48.728;8.968;2023-08-17T00:57:14;18.50;99.90
6822;DHT22;3449;48.728;8.968;2023-08-17T00:59:41;18.40;99.90
6822;DHT22;3449;48.728;8.968;2023-08-17T01:02:08;18.50;99.90
6822;DHT22;3449;48.728;8.968;2023-08-17T01:04:35;18.40;99.90
6822;DHT22;3449;48.728;8.968;2023-08-17T01:07:03;18.30;99.90
6822;DHT22;3449;48.728;8.968;2023-08-17T01:09:30;18.30;99.90
6822;DHT22;3449;48.728;8.968;2023-08-17T01:12:03;18.30;99.90
6822;DHT22;3449;48.728;8.968;2023-08-17T01:14:39;18.30;99.90
6822;DHT22;3449;48.728;8.968;2023-08-17T01:17:12;18.20;99.90
6822;DHT22;3449;48.728;8.968;2023-08-17T01:19:40;18.20;99.90
6822;DHT22;3449;48.728;8.968;2023-08-17T01:22:11;18.20;99.90
6822;DHT22;3449;48.728;8.968;2023-08-17T01:24:41;18.10;99.90
6822;DHT22;3449;48.728;8.968;2023-08-17T01:27:07;18.10;99.90
6822;DHT22;3449;48.728;8.968;2023-08-17T01:29:35;18.10;99.90
6822;DHT22;3449;48.728;8.968;2023-08-17T01:32:06;18.10;99.90
6822;DHT22;3449;48.728;8.968;2023-08-17T01:34:40;18.10;99.90
6822;DHT22;3449;48.728;8.968;2023-08-17T01:37:10;18.10;99.90
6822;DHT22;3449;48.728;8.968;2023-08-17T01:39:42;18.10;99.90
6822;DHT22;3449;48.728;8.968;2023-08-17T01:42:11;18.20;99.90
6822;DHT22;3449;48.728;8.968;2023-08-17T01:44:39;18.20;99.90
6822;DHT22;3449;48.728;8.968;2023-08-17T01:47:06;18.20;99.90
6822;DHT22;3449;48.728;8.968;2023-08-17T01:49:32;18.20;99.90
6822;DHT22;3449;48.728;8.968;2023-08-17T01:51:59;18.20;99.90
6822;DHT22;3449;48.728;8.968;2023-08-17T01:54:28;18.30;99.90
6822;DHT22;3449;48.728;8.968;2023-08-17T01:56:56;18.30;99.90
6822;DHT22;3449;48.728;8.968;2023-08-17T01:59:23;18.30;99.90
6822;DHT22;3449;48.728;8.968;2023-08-17T02:01:50;18.40;99.90
6822;DHT22;3449;48.728;8.968;2023-08-17T02:04:16;18.40;99.90
6822;DHT22;3449;48.728;8.968;2023-08-17T02:06:43;18.40;99.90
6822;DHT22;3449;48.728;8.968;2023-08-17T02:09:10;18.40;99.90
6822;DHT22;3449;48.728;8.968;2023-08-17T02:11:37;18.40;99.90
6822;DHT22;3449;48.728;8.968;2023-08-17T02:14:05;18.40;99.90
6822;DHT22;3449;48.728;8.968;2023-08-17T02:16:32;18.40;99.90
6822;DHT22;3449;48.728;8.968;2023-08-17T02:18:59;18.40;99.90
6822;DHT22;3449;48.728;8.968;2023-08-17T02:21:26;18.40;99.90
6822;DHT22;3449;48.728;8.968;2023-08-17T02:23:53;18.40;99.90
6822;DHT22;3449;48.728;8.968;2023-08-17T02:26:20;18.50;99.90
6822;DHT22;3449;48.728;8.968;2023-08-17T02:28:47;18.50;99.90
6822;DHT22;3449;48.728;8.968;2023-08-17T02:31:15;18.50;99.90
6822;DHT22;3449;48.728;8.968;2023-08-17T02:33:42;18.60;99.90
6822;DHT22;3449;48.728;8.968;2023-08-17T02:36:09;18.60;99.90
6822;DHT22;3449;48.728;8.968;2023-08-17T02:38:35;18.60;99.90
6822;DHT22;3449;48.728;8.968;2023-08-17T02:41:02;18.70;99.90
6822;DHT22;3449;48.728;8.968;2023-08-17T02:43:29;18.70;99.90
6822;DHT22;3449;48.728;8.968;2023-08-17T02:45:56;18.70;99.90
6822;DHT22;3449;48.728;8.968;2023-08-17T02:48:26;18.70;99.90
6822;DHT22;3449;48.728;8.968;2023-08-17T02:50:53;18.70;99.90
6822;DHT22;3449;48.728;8.968;2023-08-17T02:53:19;18.70;99.90
6822;DHT22;3449;48.728;8.968;2023-08-17T02:55:46;18.70;99.90
6822;DHT22;3449;48.728;8.968;2023-08-17T02:58:13;18.70;99.90
6822;DHT22;3449;48.728;8.968;2023-08-17T03:00:40;18.70;99.90
6822;DHT22;3449;48.728;8.968;2023-08-17T03:03:07;18.70;99.90
6822;DHT22;3449;48.728;8.968;2023-08-17T03:05:35;18.70;99.90
6822;DHT22;3449;48.728;8.968;2023-08-17T03:08:02;18.70;99.90
6822;DHT22;3449;48.728;8.968;2023-08-17T03:10:29;18.60;99.90
6822;DHT22;3449;48.728;8.968;2023-08-17T03:12:57;18.60;99.90
6822;DHT22;3449;48.728;8.968;2023-08-17T03:15:24;18.60;99.90
6822;DHT22;3449;48.728;8.968;2023-08-17T03:17:51;18.60;99.90
6822;DHT22;3449;48.728;8.968;2023-08-17T03:20:19;18.60;99.90
6822;DHT22;3449;48.728;8.968;2023-08-17T03:22:47;18.60;99.90
6822;DHT22;3449;48.728;8.968;2023-08-17T03:25:14;18.60;99.90
6822;DHT22;3449;48.728;8.968;2023-08-17T03:27:41;18.60;99.90
6822;DHT22;3449;48.728;8.968;2023-08-17T03:30:08;18.60;99.90
6822;DHT22;3449;48.728;8.968;2023-08-17T03:32:36;18.60;99.90
6822;DHT22;3449;48.728;8.968;2023-08-17T03:35:03;18.60;99.90
6822;DHT22;3449;48.728;8.968;2023-08-17T03:37:30;18.60;99.90
6822;DHT22;3449;48.728;8.968;2023-08-17T03:39:58;18.60;99.90
6822;DHT22;3449;48.728;8.968;2023-08-17T03:42:26;18.50;99.90
6822;DHT22;3449;48.728;8.968;2023-08-17T03:44:53;18.50;99.90
6822;DHT22;3449;48.728;8.968;2023-08-17T03:47:20;18.50;99.90
6822;DHT22;3449;48.728;8.968;2023-08-17T03:49:46;18.60;99.90
6822;DHT22;3449;48.728;8.968;2023-08-17T03:52:13;18.50;99.90
6822;DHT22;3449;48.728;8.968;2023-08-17T03:54:40;18.50;99.90
6822;DHT22;3449;48.728;8.968;2023-08-17T03:57:08;18.60;99.90
6822;DHT22;3449;48.728;8.968;2023-08-17T03:59:35;18.50;99.90
6822;DHT22;3449;48.728;8.968;2023-08-17T04:02:02;18.50;99.90
6822;DHT22;3449;48.728;8.968;2023-08-17T04:04:29;18.50;99.90
6822;DHT22;3449;48.728;8.968;2023-08-17T04:06:55;18.50;99.90
6822;DHT22;3449;48.728;8.968;2023-08-17T04:09:22;18.40;99.90
6822;DHT22;3449;48.728;8.968;2023-08-17T04:11:49;18.40;99.90
6822;DHT22;3449;48.728;8.968;2023-08-17T04:14:17;18.40;99.90
6822;DHT22;3449;48.728;8.968;2023-08-17T04:16:44;18.50;99.90
6822;DHT22;3449;48.728;8.968;2023-08-17T04:19:11;18.40;99.90
6822;DHT22;3449;48.728;8.968;2023-08-17T04:21:38;18.50;99.90
6822;DHT22;3449;48.728;8.968;2023-08-17T04:24:05;18.40;99.90
6822;DHT22;3449;48.728;8.968;2023-08-17T04:26:32;18.40;99.90
6822;DHT22;3449;48.728;8.968;2023-08-17T04:28:59;18.40;99.90
6822;DHT22;3449;48.728;8.968;2023-08-17T04:31:27;18.40;99.90
6822;DHT22;3449;48.728;8.968;2023-08-17T04:33:54;18.40;99.90
6822;DHT22;3449;48.728;8.968;2023-08-17T04:36:21;18.40;99.90
6822;DHT22;3449;48.728;8.968;2023-08-17T04:38:48;18.40;99.90
6822;DHT22;3449;48.728;8.968;2023-08-17T04:41:15;18.50;99.90
6822;DHT22;3449;48.728;8.968;2023-08-17T04:43:42;18.40;99.90
6822;DHT22;3449;48.728;8.968;2023-08-17T04:46:09;18.40;99.90
6822;DHT22;3449;48.728;8.968;2023-08-17T04:48:37;18.40;99.90
6822;DHT22;3449;48.728;8.968;2023-08-17T04:51:04;18.40;99.90
6822;DHT22;3449;48.728;8.968;2023-08-17T04:53:31;18.40;99.90
6822;DHT22;3449;48.728;8.968;2023-08-17T04:55:58;18.50;99.90
6822;DHT22;3449;48.728;8.968;2023-08-17T04:58:25;18.50;99.90
6822;DHT22;3449;48.728;8.968;2023-08-17T05:00:52;18.50;99.90
6822;DHT22;3449;48.728;8.968;2023-08-17T05:03:19;18.50;99.90
6822;DHT22;3449;48.728;8.968;2023-08-17T05:05:47;18.60;99.90
6822;DHT22;3449;48.728;8.968;2023-08-17T05:08:14;18.60;99.90
6822;DHT22;3449;48.728;8.968;2023-08-17T05:10:41;18.60;99.90
6822;DHT22;3449;48.728;8.968;2023-08-17T05:13:08;18.60;99.90
6822;DHT22;3449;48.728;8.968;2023-08-17T05:15:35;18.60;99.90
6822;DHT22;3449;48.728;8.968;2023-08-17T05:18:01;18.60;99.90
6822;DHT22;3449;48.728;8.968;2023-08-17T05:20:28;18.60;99.90
6822;DHT22;3449;48.728;8.968;2023-08-17T05:22:57;18.60;99.90
6822;DHT22;3449;48.728;8.968;2023-08-17T05:25:24;18.60;99.90
6822;DHT22;3449;48.728;8.968;2023-08-17T05:27:52;18.60;99.90
6822;DHT22;3449;48.728;8.968;2023-08-17T05:30:19;18.60;99.90
6822;DHT22;3449;48.728;8.968;2023-08-17T05:32:46;18.60;99.90
6822;DHT22;3449;48.728;8.968;2023-08-17T05:35:12;18.60;99.90
6822;DHT22;3449;48.728;8.968;2023-08-17T05:37:39;18.70;99.90
6822;DHT22;3449;48.728;8.968;2023-08-17T05:40:08;18.60;99.90
6822;DHT22;3449;48.728;8.968;2023-08-17T05:42:36;18.60;99.90
6822;DHT22;3449;48.728;8.968;2023-08-17T05:45:03;18.60;99.90
6822;DHT22;3449;48.728;8.968;2023-08-17T05:47:30;18.70;99.90
6822;DHT22;3449;48.728;8.968;2023-08-17T05:49:57;18.70;99.90
6822;DHT22;3449;48.728;8.968;2023-08-17T05:52:24;18.70;99.90
6822;DHT22;3449;48.728;8.968;2023-08-17T05:54:51;18.70;99.90
6822;DHT22;3449;48.728;8.968;2023-08-17T05:57:19;18.80;99.90
6822;DHT22;3449;48.728;8.968;2023-08-17T05:59:46;18.70;99.90
6822;DHT22;3449;48.728;8.968;2023-08-17T06:02:13;18.70;99.90
6822;DHT22;3449;48.728;8.968;2023-08-17T06:04:40;18.70;99.90
6822;DHT22;3449;48.728;8.968;2023-08-17T06:07:06;18.70;99.90
6822;DHT22;3449;48.728;8.968;2023-08-17T06:09:34;18.60;99.90
6822;DHT22;3449;48.728;8.968;2023-08-17T06:12:00;18.70;99.90
6822;DHT22;3449;48.728;8.968;2023-08-17T06:14:29;18.70;99.90
6822;DHT22;3449;48.728;8.968;2023-08-17T06:16:55;18.70;99.90
6822;DHT22;3449;48.728;8.968;2023-08-17T06:19:22;18.70;99.90
6822;DHT22;3449;48.728;8.968;2023-08-17T06:21:49;18.80;99.90
6822;DHT22;3449;48.728;8.968;2023-08-17T06:24:16;18.90;99.90
6822;DHT22;3449;48.728;8.968;2023-08-17T06:26:43;18.90;99.90
6822;DHT22;3449;48.728;8.968;2023-08-17T06:29:11;18.90;99.90
6822;DHT22;3449;48.728;8.968;2023-08-17T06:31:39;19.00;99.90
6822;DHT22;3449;48.728;8.968;2023-08-17T06:34:06;19.10;99.90
6822;DHT22;3449;48.728;8.968;2023-08-17T06:36:33;19.10;99.90
6822;DHT22;3449;48.728;8.968;2023-08-17T06:39:00;19.10;99.90
6822;DHT22;3449;48.728;8.968;2023-08-17T06:41:26;19.20;99.90
6822;DHT22;3449;48.728;8.968;2023-08-17T06:43:53;19.30;99.90
6822;DHT22;3449;48.728;8.968;2023-08-17T06:46:20;19.30;99.90
6822;DHT22;3449;48.728;8.968;2023-08-17T06:48:48;19.40;99.90
6822;DHT22;3449;48.728;8.968;2023-08-17T06:51:15;19.30;99.90
6822;DHT22;3449;48.728;8.968;2023-08-17T06:53:42;19.40;99.90
6822;DHT22;3449;48.728;8.968;2023-08-17T06:56:09;19.50;99.90
6822;DHT22;3449;48.728;8.968;2023-08-17T06:58:36;19.50;99.90
6822;DHT22;3449;48.728;8.968;2023-08-17T07:01:03;19.60;99.90
6822;DHT22;3449;48.728;8.968;2023-08-17T07:03:29;19.50;99.90
6822;DHT22;3449;48.728;8.968;2023-08-17T07:05:58;19.40;99.90
6822;DHT22;3449;48.728;8.968;2023-08-17T07:08:24;19.40;99.90
6822;DHT22;3449;48.728;8.968;2023-08-17T07:10:51;19.30;99.90
6822;DHT22;3449;48.728;8.968;2023-08-17T07:13:18;19.40;99.90
6822;DHT22;3449;48.728;8.968;2023-08-17T07:15:46;19.40;99.90
6822;DHT22;3449;48.728;8.968;2023-08-17T07:18:13;19.50;99.90
6822;DHT22;3449;48.728;8.968;2023-08-17T07:20:40;19.50;99.90
6822;DHT22;3449;48.728;8.968;2023-08-17T07:23:08;19.60;99.90
6822;DHT22;3449;48.728;8.968;2023-08-17T07:25:35;19.70;99.90
6822;DHT22;3449;48.728;8.968;2023-08-17T07:28:02;19.70;99.90
6822;DHT22;3449;48.728;8.968;2023-08-17T07:30:28;19.80;99.90
6822;DHT22;3449;48.728;8.968;2023-08-17T07:32:55;19.90;99.90
6822;DHT22;3449;48.728;8.968;2023-08-17T07:35:22;20.00;99.90
6822;DHT22;3449;48.728;8.968;2023-08-17T07:37:49;20.20;99.90
6822;DHT22;3449;48.728;8.968;2023-08-17T07:40:17;20.30;99.90
6822;DHT22;3449;48.728;8.968;2023-08-17T07:42:45;20.30;99.90
6822;DHT22;3449;48.728;8.968;2023-08-17T07:45:12;20.40;99.90
6822;DHT22;3449;48.728;8.968;2023-08-17T07:47:39;20.70;99.90
6822;DHT22;3449;48.728;8.968;2023-08-17T07:50:07;20.90;99.90
6822;DHT22;3449;48.728;8.968;2023-08-17T07:52:34;21.00;99.90
6822;DHT22;3449;48.728;8.968;2023-08-17T07:55:01;21.10;99.90
6822;DHT22;3449;48.728;8.968;2023-08-17T07:57:30;21.00;99.90
6822;DHT22;3449;48.728;8.968;2023-08-17T07:59:57;21.10;99.90
6822;DHT22;3449;48.728;8.968;2023-08-17T08:02:24;21.10;99.90
6822;DHT22;3449;48.728;8.968;2023-08-17T08:04:50;21.30;99.90
6822;DHT22;3449;48.728;8.968;2023-08-17T08:07:17;21.50;99.90
6822;DHT22;3449;48.728;8.968;2023-08-17T08:09:44;21.90;99.90
6822;DHT22;3449;48.728;8.968;2023-08-17T08:12:11;22.20;99.90
6822;DHT22;3449;48.728;8.968;2023-08-17T08:14:39;22.30;99.90
6822;DHT22;3449;48.728;8.968;2023-08-17T08:17:06;22.70;99.90
6822;DHT22;3449;48.728;8.968;2023-08-17T08:19:33;22.80;99.90
6822;DHT22;3449;48.728;8.968;2023-08-17T08:21:59;23.00;99.90
6822;DHT22;3449;48.728;8.968;2023-08-17T08:24:28;23.20;99.90
6822;DHT22;3449;48.728;8.968;2023-08-17T08:26:59;23.40;99.90
6822;DHT22;3449;48.728;8.968;2023-08-17T08:29:26;23.40;99.90
6822;DHT22;3449;48.728;8.968;2023-08-17T08:31:54;23.60;99.90
6822;DHT22;3449;48.728;8.968;2023-08-17T08:34:22;23.80;99.90
6822;DHT22;3449;48.728;8.968;2023-08-17T08:36:49;24.00;99.90
6822;DHT22;3449;48.728;8.968;2023-08-17T08:39:16;24.00;99.90
6822;DHT22;3449;48.728;8.968;2023-08-17T08:41:44;24.10;99.90
6822;DHT22;3449;48.728;8.968;2023-08-17T08:44:11;24.30;99.90
6822;DHT22;3449;48.728;8.968;2023-08-17T08:46:40;24.50;99.90
6822;DHT22;3449;48.728;8.968;2023-08-17T08:49:10;24.50;99.90
6822;DHT22;3449;48.728;8.968;2023-08-17T08:51:41;24.50;99.90
6822;DHT22;3449;48.728;8.968;2023-08-17T08:54:13;24.40;99.90
6822;DHT22;3449;48.728;8.968;2023-08-17T08:56:42;24.20;99.90
6822;DHT22;3449;48.728;8.968;2023-08-17T08:59:11;24.60;99.90
6822;DHT22;3449;48.728;8.968;2023-08-17T09:01:38;24.90;99.90
6822;DHT22;3449;48.728;8.968;2023-08-17T09:04:05;25.10;99.90
6822;DHT22;3449;48.728;8.968;2023-08-17T09:06:34;25.00;99.90
6822;DHT22;3449;48.728;8.968;2023-08-17T09:09:02;25.40;99.90
6822;DHT22;3449;48.728;8.968;2023-08-17T09:11:29;25.40;99.90
6822;DHT22;3449;48.728;8.968;2023-08-17T09:13:56;25.30;99.90
6822;DHT22;3449;48.728;8.968;2023-08-17T09:16:23;25.50;99.90
6822;DHT22;3449;48.728;8.968;2023-08-17T09:18:52;25.50;99.90
6822;DHT22;3449;48.728;8.968;2023-08-17T09:21:22;26.10;99.90
6822;DHT22;3449;48.728;8.968;2023-08-17T09:23:54;25.70;99.90
6822;DHT22;3449;48.728;8.968;2023-08-17T09:26:22;25.50;99.90
6822;DHT22;3449;48.728;8.968;2023-08-17T09:28:49;25.30;99.90
6822;DHT22;3449;48.728;8.968;2023-08-17T09:31:19;25.30;99.90
6822;DHT22;3449;48.728;8.968;2023-08-17T09:33:49;25.60;99.90
6822;DHT22;3449;48.728;8.968;2023-08-17T09:36:20;25.80;99.90
6822;DHT22;3449;48.728;8.968;2023-08-17T09:38:48;26.00;99.90
6822;DHT22;3449;48.728;8.968;2023-08-17T09:41:17;26.30;99.90
6822;DHT22;3449;48.728;8.968;2023-08-17T09:43:44;26.10;99.90
6822;DHT22;3449;48.728;8.968;2023-08-17T09:46:11;25.80;99.90
6822;DHT22;3449;48.728;8.968;2023-08-17T09:48:38;25.90;99.90
6822;DHT22;3449;48.728;8.968;2023-08-17T09:51:06;26.10;99.90
6822;DHT22;3449;48.728;8.968;2023-08-17T09:53:35;26.30;99.90
6822;DHT22;3449;48.728;8.968;2023-08-17T09:56:03;26.60;99.90
6822;DHT22;3449;48.728;8.968;2023-08-17T09:58:32;26.90;99.90
6822;DHT22;3449;48.728;8.968;2023-08-17T10:01:02;27.00;99.90
6822;DHT22;3449;48.728;8.968;2023-08-17T10:03:32;27.30;99.90
6822;DHT22;3449;48.728;8.968;2023-08-17T10:06:04;27.40;99.90
6822;DHT22;3449;48.728;8.968;2023-08-17T10:08:33;27.50;99.90
6822;DHT22;3449;48.728;8.968;2023-08-17T10:11:03;27.90;99.90
6822;DHT22;3449;48.728;8.968;2023-08-17T10:13:35;28.10;99.90
6822;DHT22;3449;48.728;8.968;2023-08-17T10:16:11;28.30;99.90
6822;DHT22;3449;48.728;8.968;2023-08-17T10:18:47;28.50;99.90
6822;DHT22;3449;48.728;8.968;2023-08-17T10:21:22;28.80;99.90
6822;DHT22;3449;48.728;8.968;2023-08-17T10:23:50;28.60;99.90
6822;DHT22;3449;48.728;8.968;2023-08-17T10:26:17;28.40;99.90
6822;DHT22;3449;48.728;8.968;2023-08-17T10:28:46;28.60;99.90
6822;DHT22;3449;48.728;8.968;2023-08-17T10:31:14;28.60;99.90
6822;DHT22;3449;48.728;8.968;2023-08-17T10:33:41;28.70;99.90
6822;DHT22;3449;48.728;8.968;2023-08-17T10:36:11;29.00;99.90
6822;DHT22;3449;48.728;8.968;2023-08-17T10:38:39;29.20;99.90
6822;DHT22;3449;48.728;8.968;2023-08-17T10:41:09;29.10;99.90
6822;DHT22;3449;48.728;8.968;2023-08-17T10:43:56;29.20;99.90
6822;DHT22;3449;48.728;8.968;2023-08-17T10:46:32;29.20;99.90
6822;DHT22;3449;48.728;8.968;2023-08-17T10:49:02;29.00;99.90
6822;DHT22;3449;48.728;8.968;2023-08-17T10:51:29;29.10;99.90
6822;DHT22;3449;48.728;8.968;2023-08-17T10:53:58;29.70;99.90
6822;DHT22;3449;48.728;8.968;2023-08-17T10:56:27;29.90;99.90
6822;DHT22;3449;48.728;8.968;2023-08-17T10:58:54;30.00;99.90
6822;DHT22;3449;48.728;8.968;2023-08-17T11:01:36;29.80;99.90
6822;DHT22;3449;48.728;8.968;2023-08-17T11:04:10;30.20;99.90
6822;DHT22;3449;48.728;8.968;2023-08-17T11:06:38;30.00;99.90
6822;DHT22;3449;48.728;8.968;2023-08-17T11:09:07;30.00;99.90
6822;DHT22;3449;48.728;8.968;2023-08-17T11:11:34;29.80;99.90
6822;DHT22;3449;48.728;8.968;2023-08-17T11:14:01;29.90;99.90
6822;DHT22;3449;48.728;8.968;2023-08-17T11:16:28;30.10;99.90
6822;DHT22;3449;48.728;8.968;2023-08-17T11:18:56;29.80;99.90
6822;DHT22;3449;48.728;8.968;2023-08-17T11:21:25;30.00;99.90
6822;DHT22;3449;48.728;8.968;2023-08-17T11:23:55;29.60;99.90
6822;DHT22;3449;48.728;8.968;2023-08-17T11:26:23;29.30;99.90
6822;DHT22;3449;48.728;8.968;2023-08-17T11:28:51;29.70;99.90
6822;DHT22;3449;48.728;8.968;2023-08-17T11:31:18;29.70;99.90
6822;DHT22;3449;48.728;8.968;2023-08-17T11:33:45;29.50;99.90
6822;DHT22;3449;48.728;8.968;2023-08-17T11:36:14;29.70;99.90
6822;DHT22;3449;48.728;8.968;2023-08-17T11:38:42;29.80;99.90
6822;DHT22;3449;48.728;8.968;2023-08-17T11:41:10;29.50;99.90
6822;DHT22;3449;48.728;8.968;2023-08-17T11:43:37;29.30;99.90
6822;DHT22;3449;48.728;8.968;2023-08-17T11:46:04;29.20;99.90
6822;DHT22;3449;48.728;8.968;2023-08-17T11:48:31;29.10;99.90
6822;DHT22;3449;48.728;8.968;2023-08-17T11:50:59;29.00;99.90
6822;DHT22;3449;48.728;8.968;2023-08-17T11:53:34;28.90;99.90
6822;DHT22;3449;48.728;8.968;2023-08-17T11:56:01;28.80;99.90
6822;DHT22;3449;48.728;8.968;2023-08-17T11:58:40;28.80;99.90
6822;DHT22;3449;48.728;8.968;2023-08-17T12:01:09;28.80;99.90
6822;DHT22;3449;48.728;8.968;2023-08-17T12:03:37;28.80;99.90
6822;DHT22;3449;48.728;8.968;2023-08-17T12:06:05;28.70;99.90
6822;DHT22;3449;48.728;8.968;2023-08-17T12:08:33;28.50;99.90
6822;DHT22;3449;48.728;8.968;2023-08-17T12:11:00;28.30;99.90
6822;DHT22;3449;48.728;8.968;2023-08-17T12:13:33;28.10;99.90
6822;DHT22;3449;48.728;8.968;2023-08-17T12:16:00;28.00;99.90
6822;DHT22;3449;48.728;8.968;2023-08-17T12:18:27;27.90;99.90
6822;DHT22;3449;48.728;8.968;2023-08-17T12:20:55;27.90;99.90
6822;DHT22;3449;48.728;8.968;2023-08-17T12:23:22;27.80;99.90
6822;DHT22;3449;48.728;8.968;2023-08-17T12:25:54;27.70;99.90
6822;DHT22;3449;48.728;8.968;2023-08-17T12:28:22;27.50;99.90
6822;DHT22;3449;48.728;8.968;2023-08-17T12:30:57;27.30;99.90
6822;DHT22;3449;48.728;8.968;2023-08-17T12:33:24;27.00;99.90
6822;DHT22;3449;48.728;8.968;2023-08-17T12:35:51;26.80;99.90
6822;DHT22;3449;48.728;8.968;2023-08-17T12:38:19;26.70;99.90
6822;DHT22;3449;48.728;8.968;2023-08-17T12:40:45;26.50;99.90
6822;DHT22;3449;48.728;8.968;2023-08-17T12:43:15;26.20;99.90
6822;DHT22;3449;48.728;8.968;2023-08-17T12:45:41;25.70;99.90
6822;DHT22;3449;48.728;8.968;2023-08-17T12:48:08;25.10;99.90
6822;DHT22;3449;48.728;8.968;2023-08-17T12:50:35;24.70;99.90
6822;DHT22;3449;48.728;8.968;2023-08-17T12:53:02;24.40;99.90
6822;DHT22;3449;48.728;8.968;2023-08-17T12:55:29;23.50;99.90
6822;DHT22;3449;48.728;8.968;2023-08-17T12:57:56;22.30;99.90
6822;DHT22;3449;48.728;8.968;2023-08-17T13:00:24;21.40;99.90
6822;DHT22;3449;48.728;8.968;2023-08-17T13:02:51;20.80;99.90
6822;DHT22;3449;48.728;8.968;2023-08-17T13:05:18;20.40;99.90
6822;DHT22;3449;48.728;8.968;2023-08-17T13:07:45;20.30;99.90
6822;DHT22;3449;48.728;8.968;2023-08-17T13:10:11;20.30;99.90
6822;DHT22;3449;48.728;8.968;2023-08-17T13:12:38;20.20;99.90
6822;DHT22;3449;48.728;8.968;2023-08-17T13:15:06;20.20;99.90
6822;DHT22;3449;48.728;8.968;2023-08-17T13:17:34;20.00;99.90
6822;DHT22;3449;48.728;8.968;2023-08-17T13:20:01;20.10;99.90
6822;DHT22;3449;48.728;8.968;2023-08-17T13:22:29;20.10;99.90
6822;DHT22;3449;48.728;8.968;2023-08-17T13:24:56;20.20;99.90
6822;DHT22;3449;48.728;8.968;2023-08-17T13:27:23;20.20;99.90
6822;DHT22;3449;48.728;8.968;2023-08-17T13:29:50;20.40;99.90
6822;DHT22;3449;48.728;8.968;2023-08-17T13:32:16;20.50;99.90
6822;DHT22;3449;48.728;8.968;2023-08-17T13:34:45;20.60;99.90
6822;DHT22;3449;48.728;8.968;2023-08-17T13:37:12;20.70;99.90
6822;DHT22;3449;48.728;8.968;2023-08-17T13:39:38;20.90;99.90
6822;DHT22;3449;48.728;8.968;2023-08-17T13:42:06;21.10;99.90
6822;DHT22;3449;48.728;8.968;2023-08-17T13:44:32;21.30;99.90
6822;DHT22;3449;48.728;8.968;2023-08-17T13:46:59;21.50;99.90
6822;DHT22;3449;48.728;8.968;2023-08-17T13:49:26;21.70;99.90
6822;DHT22;3449;48.728;8.968;2023-08-17T13:51:55;21.80;99.90
6822;DHT22;3449;48.728;8.968;2023-08-17T13:54:23;21.90;99.90
6822;DHT22;3449;48.728;8.968;2023-08-17T13:56:50;21.90;99.90
6822;DHT22;3449;48.728;8.968;2023-08-17T13:59:17;21.90;99.90
6822;DHT22;3449;48.728;8.968;2023-08-17T14:01:43;22.00;99.90
6822;DHT22;3449;48.728;8.968;2023-08-17T14:04:10;21.90;99.90
6822;DHT22;3449;48.728;8.968;2023-08-17T14:06:38;22.00;99.90
6822;DHT22;3449;48.728;8.968;2023-08-17T14:09:06;22.00;99.90
6822;DHT22;3449;48.728;8.968;2023-08-17T14:11:33;22.10;99.90
6822;DHT22;3449;48.728;8.968;2023-08-17T14:14:00;22.10;99.90
6822;DHT22;3449;48.728;8.968;2023-08-17T14:16:27;22.00;99.90
6822;DHT22;3449;48.728;8.968;2023-08-17T14:18:54;22.00;99.90
6822;DHT22;3449;48.728;8.968;2023-08-17T14:21:21;22.10;99.90
6822;DHT22;3449;48.728;8.968;2023-08-17T14:23:48;22.10;99.90
6822;DHT22;3449;48.728;8.968;2023-08-17T14:26:16;22.20;99.90
6822;DHT22;3449;48.728;8.968;2023-08-17T14:28:43;22.30;99.90
6822;DHT22;3449;48.728;8.968;2023-08-17T14:31:10;22.40;99.90
6822;DHT22;3449;48.728;8.968;2023-08-17T14:33:41;22.50;99.90
6822;DHT22;3449;48.728;8.968;2023-08-17T14:36:08;22.70;99.90
6822;DHT22;3449;48.728;8.968;2023-08-17T14:38:34;22.80;99.90
6822;DHT22;3449;48.728;8.968;2023-08-17T14:41:01;23.00;99.90
6822;DHT22;3449;48.728;8.968;2023-08-17T14:43:31;23.20;99.90
6822;DHT22;3449;48.728;8.968;2023-08-17T14:45:58;23.40;99.90
6822;DHT22;3449;48.728;8.968;2023-08-17T14:48:25;23.60;99.90
6822;DHT22;3449;48.728;8.968;2023-08-17T14:50:52;23.70;99.90
6822;DHT22;3449;48.728;8.968;2023-08-17T14:53:18;23.90;99.90
6822;DHT22;3449;48.728;8.968;2023-08-17T14:55:45;24.20;99.90
6822;DHT22;3449;48.728;8.968;2023-08-17T14:58:12;24.60;99.90
6822;DHT22;3449;48.728;8.968;2023-08-17T15:00:42;24.90;99.90
6822;DHT22;3449;48.728;8.968;2023-08-17T15:03:09;25.30;99.90
6822;DHT22;3449;48.728;8.968;2023-08-17T15:05:35;25.50;99.90
6822;DHT22;3449;48.728;8.968;2023-08-17T15:08:04;25.90;99.90
6822;DHT22;3449;48.728;8.968;2023-08-17T15:10:32;26.10;99.90
6822;DHT22;3449;48.728;8.968;2023-08-17T15:12:59;26.00;99.90
6822;DHT22;3449;48.728;8.968;2023-08-17T15:15:26;26.00;99.90
6822;DHT22;3449;48.728;8.968;2023-08-17T15:17:55;25.90;99.90
6822;DHT22;3449;48.728;8.968;2023-08-17T15:20:22;25.90;99.90
6822;DHT22;3449;48.728;8.968;2023-08-17T15:22:49;26.10;99.90
6822;DHT22;3449;48.728;8.968;2023-08-17T15:25:16;26.30;99.90
6822;DHT22;3449;48.728;8.968;2023-08-17T15:27:42;26.40;99.90
6822;DHT22;3449;48.728;8.968;2023-08-17T15:30:11;26.60;99.90
6822;DHT22;3449;48.728;8.968;2023-08-17T15:32:38;27.10;99.90
6822;DHT22;3449;48.728;8.968;2023-08-17T15:35:07;27.30;99.90
6822;DHT22;3449;48.728;8.968;2023-08-17T15:37:34;27.40;99.90
6822;DHT22;3449;48.728;8.968;2023-08-17T15:40:03;27.30;99.90
6822;DHT22;3449;48.728;8.968;2023-08-17T15:42:30;27.20;99.90
6822;DHT22;3449;48.728;8.968;2023-08-17T15:44:56;27.00;99.90
6822;DHT22;3449;48.728;8.968;2023-08-17T15:47:23;27.20;99.90
6822;DHT22;3449;48.728;8.968;2023-08-17T15:49:50;27.50;99.90
6822;DHT22;3449;48.728;8.968;2023-08-17T15:52:18;27.50;99.90
6822;DHT22;3449;48.728;8.968;2023-08-17T15:54:45;27.70;99.90
6822;DHT22;3449;48.728;8.968;2023-08-17T15:57:12;27.70;99.90
6822;DHT22;3449;48.728;8.968;2023-08-17T15:59:39;27.70;99.90
6822;DHT22;3449;48.728;8.968;2023-08-17T16:02:06;27.80;99.90
6822;DHT22;3449;48.728;8.968;2023-08-17T16:04:33;28.00;99.90